Terminal Aerodrome Forecast
Issued by NWS

Home | Current Version | Previous Version | Text Only | Print | Product List | Glossary On
Versions: 1 2 3 4 5 6 7 8 9 10 11 12 13 14 15 16 17
324
FTAK31 PAJN 260059 AAA
TAFAYA
TAF AMD
PAYA 260059Z 2601/2624 11007KT P6SM VCSH SCT015 OVC040
      TEMPO 2601/2604 1/2SM SN FG BKN015
     FM260400 09005KT 4SM -SHSN FEW008 OVC025
     FM261200 08005KT 2SM -SHSN OVC015
     FM261800 07006KT P6SM VCSH BKN050
     FM262100 08006KT P6SM BKN060
      AMD LTD TO CLD VIS AND WIND 2601/2609=

USA.gov is the U.S. government's official web portal to all federal, state and local government web resources and services.